Terminal Aerodrome Forecast
Issued by NWS

Home | Current Version | Previous Version | Text Only | Print | Product List | Glossary On
Versions: 1 2 3 4 5 6 7 8 9 10 11 12 13 14 15 16 17 18 19 20 21
000
FTAK31 PAFA 192340
TAFAMC
TAF
PAMC 192340Z 2000/2024 35005KT 1SM -SN OVC015
     FM200200 06006KT 5SM -SN BR OVC015
     FM200500 01008KT P6SM BKN025=

USA.gov is the U.S. government's official web portal to all federal, state and local government web resources and services.